Flight Track Log - Related Links

Times and Time Zones

All times are in EDT time to prevent confusion due to time zone crossing. See the SWA2624 flight status page for this flight to view local times or setup timezone preferences in your user account.


Time Position Orientation Groundspeed Altitude Reporting Facility
EDT Latitude Longitude Course Direction KTS MPH feet Rate Location/Type
Fri 12:36:38 AM 35.0356 -106.5581 120° Southeast 198 228 6,600  Level Albuquerque Center
Fri 12:37:39 AM 34.9672 -106.5575 180° South 267 307 9,400 2,683 Climbing Albuquerque Center
Fri 12:38:41 AM 34.9617 -106.6286 265° West 255 293 12,100 2,341 Climbing Albuquerque Center
Fri 12:39:42 AM 35.0011 -106.7247 297° West 309 356 14,200 2,311 Climbing Albuquerque Center
Fri 12:40:43 AM 35.0442 -106.8353 295° West 347 399 16,800 3,098 Climbing Albuquerque Center
Fri 12:41:44 AM 35.0978 -106.9683 296° West 378 435 20,500 3,738 Climbing Albuquerque Center
Fri 12:42:45 AM 35.1389 -107.0717 296° West 351 404 24,400 2,508 Climbing Albuquerque Center
Fri 12:43:46 AM 35.1836 -107.1883 295° West 382 440 25,600 1,488 Climbing Albuquerque Center
Fri 12:44:46 AM 35.2175 -107.3206 287° West 407 468 27,400 1,983 Climbing Albuquerque Center
Fri 12:45:47 AM 35.2336 -107.4564 278° West 403 464 29,600 2,262 Climbing Albuquerque Center
Fri 12:46:48 AM 35.2528 -107.6092 279° West 399 459 32,000 2,311 Climbing Albuquerque Center
Fri 12:47:49 AM 35.2672 -107.7356 278° West 394 453 34,300 1,967 Climbing Albuquerque Center
Fri 12:48:50 AM 35.2825 -107.8589 279° West 386 444 36,000 1,537 Climbing Albuquerque Center
Fri 12:49:50 AM 35.3006 -107.9997 279° West 378 435 37,400 1,041 Climbing Albuquerque Center
Fri 12:50:51 AM 35.3147 -108.1256 278° West 383 441 38,100 738 Climbing Albuquerque Center
Fri 12:51:52 AM 35.3300 -108.2536 278° West 392 451 38,900 934 Climbing Albuquerque Center
Fri 12:52:53 AM 35.3500 -108.4039 279° West 397 457 40,000 541 Climbing Albuquerque Center
Fri 12:53:54 AM 35.3850 -108.5286 289° West 401 461 40,000  Level Albuquerque Center
Fri 12:54:54 AM 35.4181 -108.6550 288° West 405 466 40,000  Level Albuquerque Center
Fri 12:55:55 AM 35.4583 -108.8036 288° West 408 470 40,000  Level Albuquerque Center
Fri 12:56:56 AM 35.4803 -108.9339 282° West 405 466 40,000  Level Albuquerque Center
Fri 12:57:57 AM 35.4869 -109.0636 274° West 398 458 40,000  Level Albuquerque Center
Fri 12:58:57 AM 35.4936 -109.1947 274° West 399 459 40,000  Level Albuquerque Center
Fri 12:59:58 AM 35.5006 -109.3492 273° West 401 461 40,000  Level Albuquerque Center
Fri 01:00:59 AM 35.5058 -109.4806 273° West 403 464 40,000  Level Albuquerque Center
Fri 01:02:00 AM 35.5119 -109.6094 273° West 400 460 40,000  Level Albuquerque Center
Fri 01:03:00 AM 35.5175 -109.7622 273° West 398 458 40,000  Level Albuquerque Center
Fri 01:04:01 AM 35.5231 -109.8928 273° West 398 458 40,000  Level Albuquerque Center
Fri 01:05:02 AM 35.5272 -110.0244 272° West 402 463 40,000  Level Albuquerque Center
Fri 01:06:03 AM 35.5333 -110.1767 273° West 401 461 40,000  Level Albuquerque Center
Fri 01:07:03 AM 35.5364 -110.3081 272° West 402 463 40,000  Level Albuquerque Center
Fri 01:08:04 AM 35.5425 -110.4400 273° West 403 464 40,000  Level Albuquerque Center
Fri 01:09:05 AM 35.5475 -110.5928 272° West 402 463 40,000  Level Albuquerque Center
Fri 01:10:06 AM 35.5525 -110.7258 273° West 405 466 40,000  Level Albuquerque Center
Fri 01:11:06 AM 35.5583 -110.8578 273° West 405 466 40,000 -397 Level Albuquerque Center
Fri 01:12:07 AM 35.5639 -111.0114 273° West 403 464 39,200 -934 Descending Albuquerque Center
Fri 01:13:08 AM 35.5681 -111.1431 272° West 403 464 38,100 -1,884 Descending Albuquerque Center
Fri 01:14:08 AM 35.5722 -111.2744 272° West 403 464 35,400 -3,273 Descending Albuquerque Center
Fri 01:15:09 AM 35.5783 -111.4300 273° West 406 467 31,500 -2,656 Descending Albuquerque Center
Fri 01:16:10 AM 35.5806 -111.5522 271° West 416 479 30,000 -744 Descending Albuquerque Center
Fri 01:17:10 AM 35.5853 -111.6969 272° West 422 486 30,000  Level Albuquerque Center
Fri 01:18:11 AM 35.5900 -111.8408 272° West 425 489 30,000  Level Albuquerque Center
Fri 01:19:12 AM 35.5936 -111.9850 272° West 425 489 30,000  Level Albuquerque Center
Fri 01:20:01 AM 35.5978 -112.1292 272° West 425 489 30,000  Level Los Angeles Center
Fri 01:21:03 AM 35.6014 -112.2750 272° West 428 493 30,000  Level Los Angeles Center
Fri 01:22:04 AM 35.6053 -112.4197 272° West 429 494 30,000  Level Los Angeles Center
Fri 01:23:05 AM 35.6081 -112.5639 271° West 427 491 30,000  Level Los Angeles Center
Fri 01:24:07 AM 35.6108 -112.7169 271° West 426 490 30,000  Level Los Angeles Center
Fri 01:25:08 AM 35.6136 -112.8608 271° West 423 487 30,000  Level Los Angeles Center
Fri 01:26:09 AM 35.6164 -113.0142 271° West 419 482 30,000  Level Los Angeles Center
Fri 01:27:10 AM 35.6183 -113.1569 271° West 418 481 30,000  Level Los Angeles Center
Fri 01:28:12 AM 35.6217 -113.3014 272° West 420 483 30,000 -829 Level Los Angeles Center
Fri 01:29:13 AM 35.6228 -113.4447 271° West 426 490 28,300 -2,164 Descending Los Angeles Center
Fri 01:30:14 AM 35.6289 -113.5867 273° West 422 486 25,600 -2,634 Descending Los Angeles Center
Fri 01:31:16 AM 35.6514 -113.7253 281° West 419 482 22,900 -2,634 Descending Los Angeles Center
Fri 01:32:17 AM 35.6697 -113.8619 279° West 411 473 20,200 -2,705 Descending Los Angeles Center
Fri 01:33:18 AM 35.6922 -114.0192 280° West 391 450 17,400 -2,557 Descending Los Angeles Center
Fri 01:34:19 AM 35.7097 -114.1419 280° West 372 428 15,000 -2,361 Descending Los Angeles Center
Fri 01:35:20 AM 35.7264 -114.2703 279° West 361 415 12,600 -1,732 Descending Los Angeles Center
Fri 01:35:56 AM 35.7367 -114.3383 281° West 345 397 12,200 -581 Descending Los Angeles Center
Fri 01:36:22 AM 35.7447 -114.3786 284° West 326 375 12,000 -245 Descending Los Angeles Center
Fri 01:36:45 AM 35.7739 -114.3972 333° Northwest 301 346 12,000  Level Los Angeles Center
Fri 01:37:23 AM 35.8189 -114.4189 339° North 293 337 12,000 98 Level Los Angeles Center
Fri 01:37:46 AM 35.8469 -114.4336 337° Northwest 284 327 12,100 -197 Climbing Los Angeles Center
Fri 01:38:24 AM 35.8900 -114.4525 340° North 280 322 11,800 -885 Descending Los Angeles Center
Fri 01:38:47 AM 35.9261 -114.4681 341° North 281 323 11,200 -1,180 Descending Los Angeles Center
Fri 01:39:25 AM 35.9625 -114.4858 338° Northwest 278 320 10,600 -900 Descending Los Angeles Center
Fri 01:39:47 AM 35.9967 -114.5028 338° Northwest 270 311 10,300 -492 Descending Los Angeles Center
Fri 01:40:26 AM 36.0314 -114.5197 338° Northwest 272 313 10,100 -295 Descending Los Angeles Center
Fri 01:40:48 AM 36.0450 -114.5556 295° West 242 278 10,000 -194 Descending Los Angeles Center
Fri 01:41:28 AM 36.0508 -114.5983 280° West 250 288 9,900 -689 Descending Los Angeles Center
Fri 01:41:49 AM 36.0592 -114.6386 284° West 242 278 9,300 -984 Descending Los Angeles Center
Fri 01:42:29 AM 36.0622 -114.6783 275° West 239 275 8,900 -885 Descending Los Angeles Center
Fri 01:42:50 AM 36.0636 -114.7172 273° West 221 254 8,400 -984 Descending Los Angeles Center
Fri 01:43:30 AM 36.0672 -114.7533 277° West 226 260 7,900 -985 Descending Los Angeles Center
Fri 01:43:57 AM 36.0692 -114.8006 273° West 224 258 7,300 -787 Descending Los Angeles Center
Fri 01:44:31 AM 36.0717 -114.8278 276° West 221 254 7,100 -800 Descending Los Angeles Center
Fri 01:44:57 AM 36.0744 -114.8733 274° West 210 242 6,500 -1,475 Descending Los Angeles Center
Fri 01:45:32 AM 36.0758 -114.9147 272° West 215 247 5,600 -1,475 Descending Los Angeles Center
Fri 01:45:58 AM 36.0733 -114.9481 265° West 209 241 5,000 -1,161 Descending Los Angeles Center
Fri 01:46:34 AM 36.0742 -114.9839 272° West 210 242 4,400 -984 Descending Los Angeles Center
Fri 01:46:59 AM 36.0739 -115.0092 269° West 174 200 4,000 -885 Descending Los Angeles Center
Fri 01:47:35 AM 36.0742 -115.0408 271° West 190 219 3,500 -885 Descending Los Angeles Center
Fri 01:48:00 AM 36.0731 -115.0653 267° West 160 184 3,100 -787 Descending Los Angeles Center
Fri 01:48:36 AM 36.0739 -115.0900 272° West 167 192 2,700 -787 Descending Los Angeles Center
Fri 01:49:01 AM 36.0722 -115.1108 264° West 131 151 2,300 -689 Descending Los Angeles Center
Fri 01:49:37 AM 36.0739 -115.1347 275° West 147 169 2,000 -500 Descending Los Angeles Center
Fri 01:51:00 AM 36.0667 -115.1500 270° West  Level FlightAware Approximate

Login

Don't have an account? Register now (free) for customized features, flight alerts, and more!